sensor_id;sensor_type;location;lat;lon;timestamp;P1;durP1;ratioP1;P2;durP2;ratioP2
9698;SDS011;10089;47.876;8.346;2022-09-06T00:01:17;5.00;;;2.95;;
9698;SDS011;10089;47.876;8.346;2022-09-06T00:03:43;5.20;;;3.00;;
9698;SDS011;10089;47.876;8.346;2022-09-06T00:06:11;6.82;;;3.00;;
9698;SDS011;10089;47.876;8.346;2022-09-06T00:08:38;3.45;;;2.90;;
9698;SDS011;10089;47.876;8.346;2022-09-06T00:11:05;3.65;;;2.90;;
9698;SDS011;10089;47.876;8.346;2022-09-06T00:13:31;3.63;;;3.00;;
9698;SDS011;10089;47.876;8.346;2022-09-06T00:18:43;3.97;;;2.70;;
9698;SDS011;10089;47.876;8.346;2022-09-06T00:21:17;2.85;;;2.63;;
9698;SDS011;10089;47.876;8.346;2022-09-06T00:23:44;3.90;;;2.80;;
9698;SDS011;10089;47.876;8.346;2022-09-06T00:26:10;4.57;;;2.73;;
9698;SDS011;10089;47.876;8.346;2022-09-06T00:28:36;2.88;;;2.40;;
9698;SDS011;10089;47.876;8.346;2022-09-06T00:31:06;3.97;;;2.45;;
9698;SDS011;10089;47.876;8.346;2022-09-06T00:33:53;3.92;;;2.50;;
9698;SDS011;10089;47.876;8.346;2022-09-06T00:36:19;4.18;;;2.35;;
9698;SDS011;10089;47.876;8.346;2022-09-06T00:38:45;6.70;;;2.85;;
9698;SDS011;10089;47.876;8.346;2022-09-06T00:41:12;3.92;;;2.30;;
9698;SDS011;10089;47.876;8.346;2022-09-06T00:43:39;3.10;;;2.70;;
9698;SDS011;10089;47.876;8.346;2022-09-06T00:46:05;4.70;;;2.57;;
9698;SDS011;10089;47.876;8.346;2022-09-06T00:48:33;3.00;;;2.70;;
9698;SDS011;10089;47.876;8.346;2022-09-06T00:51:02;2.67;;;2.47;;
9698;SDS011;10089;47.876;8.346;2022-09-06T00:53:31;5.10;;;2.67;;
9698;SDS011;10089;47.876;8.346;2022-09-06T00:55:57;3.10;;;2.63;;
9698;SDS011;10089;47.876;8.346;2022-09-06T00:58:24;2.80;;;2.50;;
9698;SDS011;10089;47.876;8.346;2022-09-06T01:00:50;4.85;;;2.85;;
9698;SDS011;10089;47.876;8.346;2022-09-06T01:03:16;4.80;;;2.83;;
9698;SDS011;10089;47.876;8.346;2022-09-06T02:22:46;3.80;;;3.13;;
9698;SDS011;10089;47.876;8.346;2022-09-06T02:25:20;3.65;;;3.35;;
9698;SDS011;10089;47.876;8.346;2022-09-06T02:27:49;7.30;;;3.50;;
9698;SDS011;10089;47.876;8.346;2022-09-06T02:30:15;4.53;;;3.47;;
9698;SDS011;10089;47.876;8.346;2022-09-06T02:33:03;5.32;;;3.30;;
9698;SDS011;10089;47.876;8.346;2022-09-06T02:35:30;9.02;;;3.78;;
9698;SDS011;10089;47.876;8.346;2022-09-06T02:38:05;7.18;;;3.75;;
9698;SDS011;10089;47.876;8.346;2022-09-06T02:40:31;7.82;;;3.88;;
9698;SDS011;10089;47.876;8.346;2022-09-06T02:42:57;7.35;;;3.92;;
9698;SDS011;10089;47.876;8.346;2022-09-06T02:45:23;6.00;;;3.70;;
9698;SDS011;10089;47.876;8.346;2022-09-06T02:47:49;6.45;;;3.50;;
9698;SDS011;10089;47.876;8.346;2022-09-06T02:50:14;8.73;;;3.70;;
9698;SDS011;10089;47.876;8.346;2022-09-06T02:52:40;5.57;;;3.45;;
9698;SDS011;10089;47.876;8.346;2022-09-06T02:55:06;6.72;;;3.35;;
9698;SDS011;10089;47.876;8.346;2022-09-06T02:57:32;5.22;;;4.18;;
9698;SDS011;10089;47.876;8.346;2022-09-06T02:59:58;6.85;;;3.60;;
9698;SDS011;10089;47.876;8.346;2022-09-06T03:02:23;6.28;;;3.33;;
9698;SDS011;10089;47.876;8.346;2022-09-06T03:04:50;8.00;;;3.45;;
9698;SDS011;10089;47.876;8.346;2022-09-06T03:07:15;6.30;;;3.78;;
9698;SDS011;10089;47.876;8.346;2022-09-06T03:09:47;4.25;;;3.25;;
9698;SDS011;10089;47.876;8.346;2022-09-06T03:12:13;4.82;;;3.40;;
9698;SDS011;10089;47.876;8.346;2022-09-06T03:14:39;4.45;;;3.63;;
9698;SDS011;10089;47.876;8.346;2022-09-06T03:17:05;10.27;;;3.50;;
9698;SDS011;10089;47.876;8.346;2022-09-06T03:19:31;9.40;;;4.28;;
9698;SDS011;10089;47.876;8.346;2022-09-06T03:21:57;7.72;;;3.47;;
9698;SDS011;10089;47.876;8.346;2022-09-06T03:24:23;6.28;;;3.80;;
9698;SDS011;10089;47.876;8.346;2022-09-06T03:26:48;6.90;;;3.50;;
9698;SDS011;10089;47.876;8.346;2022-09-06T03:29:14;3.88;;;3.42;;
9698;SDS011;10089;47.876;8.346;2022-09-06T03:31:40;5.00;;;3.35;;
9698;SDS011;10089;47.876;8.346;2022-09-06T03:34:06;5.38;;;3.30;;
9698;SDS011;10089;47.876;8.346;2022-09-06T03:36:31;6.25;;;3.58;;
9698;SDS011;10089;47.876;8.346;2022-09-06T03:38:57;5.55;;;3.30;;
9698;SDS011;10089;47.876;8.346;2022-09-06T03:41:23;6.63;;;3.42;;
9698;SDS011;10089;47.876;8.346;2022-09-06T03:43:49;5.80;;;3.53;;
9698;SDS011;10089;47.876;8.346;2022-09-06T03:46:14;7.55;;;3.72;;
9698;SDS011;10089;47.876;8.346;2022-09-06T03:48:40;4.80;;;3.35;;
9698;SDS011;10089;47.876;8.346;2022-09-06T03:51:06;6.00;;;3.50;;
9698;SDS011;10089;47.876;8.346;2022-09-06T03:53:32;4.38;;;3.58;;
9698;SDS011;10089;47.876;8.346;2022-09-06T03:55:57;10.95;;;4.00;;
9698;SDS011;10089;47.876;8.346;2022-09-06T03:58:24;7.40;;;3.53;;
9698;SDS011;10089;47.876;8.346;2022-09-06T04:01:04;9.75;;;3.88;;
9698;SDS011;10089;47.876;8.346;2022-09-06T04:03:32;14.65;;;4.20;;
9698;SDS011;10089;47.876;8.346;2022-09-06T04:05:58;9.23;;;4.00;;
9698;SDS011;10089;47.876;8.346;2022-09-06T04:08:24;7.32;;;3.72;;
9698;SDS011;10089;47.876;8.346;2022-09-06T04:10:54;10.88;;;4.15;;
9698;SDS011;10089;47.876;8.346;2022-09-06T04:13:21;6.90;;;3.47;;
9698;SDS011;10089;47.876;8.346;2022-09-06T04:15:47;6.13;;;3.53;;
9698;SDS011;10089;47.876;8.346;2022-09-06T04:18:14;6.55;;;3.70;;
9698;SDS011;10089;47.876;8.346;2022-09-06T04:20:40;8.30;;;3.22;;
9698;SDS011;10089;47.876;8.346;2022-09-06T04:23:06;8.20;;;3.47;;
9698;SDS011;10089;47.876;8.346;2022-09-06T04:25:33;7.20;;;3.63;;
9698;SDS011;10089;47.876;8.346;2022-09-06T04:27:59;9.45;;;4.28;;
9698;SDS011;10089;47.876;8.346;2022-09-06T04:30:25;7.47;;;4.07;;
9698;SDS011;10089;47.876;8.346;2022-09-06T04:32:51;8.20;;;3.90;;
9698;SDS011;10089;47.876;8.346;2022-09-06T04:35:16;10.27;;;3.95;;
9698;SDS011;10089;47.876;8.346;2022-09-06T04:37:42;16.65;;;7.07;;
9698;SDS011;10089;47.876;8.346;2022-09-06T04:40:08;12.23;;;4.38;;
9698;SDS011;10089;47.876;8.346;2022-09-06T04:42:34;4.95;;;4.07;;
9698;SDS011;10089;47.876;8.346;2022-09-06T04:45:00;16.17;;;4.13;;
9698;SDS011;10089;47.876;8.346;2022-09-06T04:47:26;10.10;;;3.78;;
9698;SDS011;10089;47.876;8.346;2022-09-06T04:49:51;7.40;;;3.60;;
9698;SDS011;10089;47.876;8.346;2022-09-06T04:52:17;9.27;;;3.88;;
9698;SDS011;10089;47.876;8.346;2022-09-06T04:54:43;10.82;;;3.70;;
9698;SDS011;10089;47.876;8.346;2022-09-06T04:57:09;10.93;;;3.63;;
9698;SDS011;10089;47.876;8.346;2022-09-06T04:59:35;7.72;;;3.45;;
9698;SDS011;10089;47.876;8.346;2022-09-06T05:02:01;4.18;;;3.30;;
9698;SDS011;10089;47.876;8.346;2022-09-06T05:04:27;7.93;;;3.33;;
9698;SDS011;10089;47.876;8.346;2022-09-06T05:07:00;7.32;;;3.92;;
9698;SDS011;10089;47.876;8.346;2022-09-06T05:09:26;8.90;;;4.05;;
9698;SDS011;10089;47.876;8.346;2022-09-06T05:11:52;10.45;;;3.60;;
9698;SDS011;10089;47.876;8.346;2022-09-06T05:14:18;8.40;;;3.63;;
9698;SDS011;10089;47.876;8.346;2022-09-06T05:16:44;9.98;;;3.53;;
9698;SDS011;10089;47.876;8.346;2022-09-06T05:19:10;7.97;;;3.83;;
9698;SDS011;10089;47.876;8.346;2022-09-06T05:21:36;7.80;;;3.75;;
9698;SDS011;10089;47.876;8.346;2022-09-06T05:24:02;10.55;;;4.22;;
9698;SDS011;10089;47.876;8.346;2022-09-06T05:26:28;11.98;;;3.97;;
9698;SDS011;10089;47.876;8.346;2022-09-06T05:28:54;9.25;;;4.20;;
9698;SDS011;10089;47.876;8.346;2022-09-06T05:31:23;5.15;;;3.90;;
9698;SDS011;10089;47.876;8.346;2022-09-06T05:33:50;7.20;;;3.75;;
9698;SDS011;10089;47.876;8.346;2022-09-06T05:36:17;10.82;;;4.22;;
9698;SDS011;10089;47.876;8.346;2022-09-06T05:38:43;9.20;;;3.63;;
9698;SDS011;10089;47.876;8.346;2022-09-06T05:41:09;7.70;;;3.90;;
9698;SDS011;10089;47.876;8.346;2022-09-06T05:43:34;9.10;;;4.05;;
9698;SDS011;10089;47.876;8.346;2022-09-06T05:46:00;14.23;;;5.22;;
9698;SDS011;10089;47.876;8.346;2022-09-06T05:48:26;8.73;;;3.90;;
9698;SDS011;10089;47.876;8.346;2022-09-06T05:50:59;12.52;;;3.95;;
9698;SDS011;10089;47.876;8.346;2022-09-06T05:53:33;8.52;;;4.00;;
9698;SDS011;10089;47.876;8.346;2022-09-06T05:56:03;8.45;;;4.00;;
9698;SDS011;10089;47.876;8.346;2022-09-06T05:58:33;15.77;;;4.80;;
9698;SDS011;10089;47.876;8.346;2022-09-06T06:01:05;9.15;;;4.07;;
9698;SDS011;10089;47.876;8.346;2022-09-06T06:03:42;9.15;;;3.78;;
9698;SDS011;10089;47.876;8.346;2022-09-06T06:06:27;13.65;;;4.45;;
9698;SDS011;10089;47.876;8.346;2022-09-06T06:08:55;7.88;;;3.75;;
9698;SDS011;10089;47.876;8.346;2022-09-06T06:11:21;4.93;;;3.65;;
9698;SDS011;10089;47.876;8.346;2022-09-06T06:13:47;11.13;;;3.53;;
9698;SDS011;10089;47.876;8.346;2022-09-06T06:16:17;6.97;;;3.83;;
9698;SDS011;10089;47.876;8.346;2022-09-06T06:18:44;11.25;;;3.63;;
9698;SDS011;10089;47.876;8.346;2022-09-06T06:21:15;7.70;;;3.60;;
9698;SDS011;10089;47.876;8.346;2022-09-06T06:23:43;9.75;;;3.88;;
9698;SDS011;10089;47.876;8.346;2022-09-06T06:26:10;9.02;;;4.28;;
9698;SDS011;10089;47.876;8.346;2022-09-06T06:28:37;10.48;;;4.05;;
9698;SDS011;10089;47.876;8.346;2022-09-06T06:31:04;5.47;;;3.85;;
9698;SDS011;10089;47.876;8.346;2022-09-06T06:33:31;6.72;;;4.18;;
9698;SDS011;10089;47.876;8.346;2022-09-06T06:35:58;13.25;;;4.28;;
9698;SDS011;10089;47.876;8.346;2022-09-06T06:41:00;7.75;;;3.80;;
9698;SDS011;10089;47.876;8.346;2022-09-06T06:43:26;5.97;;;3.83;;
9698;SDS011;10089;47.876;8.346;2022-09-06T06:45:52;7.18;;;4.63;;
9698;SDS011;10089;47.876;8.346;2022-09-06T06:48:19;6.90;;;4.50;;
9698;SDS011;10089;47.876;8.346;2022-09-06T06:50:45;9.63;;;4.38;;
9698;SDS011;10089;47.876;8.346;2022-09-06T06:53:11;11.55;;;4.78;;
9698;SDS011;10089;47.876;8.346;2022-09-06T06:55:37;12.98;;;4.32;;
9698;SDS011;10089;47.876;8.346;2022-09-06T06:58:03;4.88;;;4.38;;
9698;SDS011;10089;47.876;8.346;2022-09-06T07:00:29;9.05;;;4.82;;
9698;SDS011;10089;47.876;8.346;2022-09-06T07:02:55;6.93;;;4.57;;
9698;SDS011;10089;47.876;8.346;2022-09-06T07:05:21;7.75;;;4.53;;
9698;SDS011;10089;47.876;8.346;2022-09-06T07:07:48;6.75;;;4.20;;
9698;SDS011;10089;47.876;8.346;2022-09-06T07:10:14;6.47;;;4.75;;
9698;SDS011;10089;47.876;8.346;2022-09-06T07:12:46;8.52;;;5.40;;
9698;SDS011;10089;47.876;8.346;2022-09-06T07:15:12;12.90;;;5.25;;
9698;SDS011;10089;47.876;8.346;2022-09-06T07:17:38;8.95;;;4.93;;
9698;SDS011;10089;47.876;8.346;2022-09-06T07:20:03;7.65;;;5.72;;
9698;SDS011;10089;47.876;8.346;2022-09-06T07:22:30;14.05;;;5.55;;
9698;SDS011;10089;47.876;8.346;2022-09-06T07:24:55;6.18;;;5.18;;
9698;SDS011;10089;47.876;8.346;2022-09-06T07:27:21;6.88;;;5.50;;
9698;SDS011;10089;47.876;8.346;2022-09-06T07:29:47;8.98;;;5.78;;
9698;SDS011;10089;47.876;8.346;2022-09-06T07:32:13;7.88;;;5.72;;
9698;SDS011;10089;47.876;8.346;2022-09-06T07:34:39;9.68;;;6.10;;
9698;SDS011;10089;47.876;8.346;2022-09-06T07:37:05;11.30;;;6.43;;
9698;SDS011;10089;47.876;8.346;2022-09-06T07:39:31;11.77;;;6.63;;
9698;SDS011;10089;47.876;8.346;2022-09-06T07:41:57;9.82;;;5.72;;
9698;SDS011;10089;47.876;8.346;2022-09-06T07:44:23;11.90;;;6.10;;
9698;SDS011;10089;47.876;8.346;2022-09-06T07:46:49;8.32;;;5.20;;
9698;SDS011;10089;47.876;8.346;2022-09-06T07:49:16;11.63;;;5.85;;
9698;SDS011;10089;47.876;8.346;2022-09-06T07:51:41;12.43;;;5.32;;
9698;SDS011;10089;47.876;8.346;2022-09-06T07:54:07;7.72;;;4.82;;
9698;SDS011;10089;47.876;8.346;2022-09-06T07:56:34;9.38;;;4.95;;
9698;SDS011;10089;47.876;8.346;2022-09-06T07:59:00;9.93;;;5.65;;
9698;SDS011;10089;47.876;8.346;2022-09-06T08:03:55;5.18;;;4.53;;
9698;SDS011;10089;47.876;8.346;2022-09-06T08:06:25;11.02;;;5.13;;
9698;SDS011;10089;47.876;8.346;2022-09-06T08:08:52;8.13;;;4.78;;
9698;SDS011;10089;47.876;8.346;2022-09-06T08:11:19;10.32;;;5.10;;
9698;SDS011;10089;47.876;8.346;2022-09-06T08:13:49;14.05;;;5.15;;
9698;SDS011;10089;47.876;8.346;2022-09-06T08:16:16;10.15;;;4.80;;
9698;SDS011;10089;47.876;8.346;2022-09-06T08:18:43;6.00;;;4.43;;
9698;SDS011;10089;47.876;8.346;2022-09-06T08:21:10;10.25;;;4.72;;
9698;SDS011;10089;47.876;8.346;2022-09-06T08:23:38;7.32;;;4.38;;
9698;SDS011;10089;47.876;8.346;2022-09-06T08:26:08;7.80;;;4.38;;
9698;SDS011;10089;47.876;8.346;2022-09-06T08:28:34;11.93;;;4.78;;
9698;SDS011;10089;47.876;8.346;2022-09-06T08:31:18;12.65;;;3.95;;
9698;SDS011;10089;47.876;8.346;2022-09-06T08:33:44;7.20;;;4.05;;
9698;SDS011;10089;47.876;8.346;2022-09-06T08:36:12;6.35;;;3.95;;
9698;SDS011;10089;47.876;8.346;2022-09-06T08:38:38;10.75;;;4.00;;
9698;SDS011;10089;47.876;8.346;2022-09-06T08:41:09;8.15;;;4.00;;
9698;SDS011;10089;47.876;8.346;2022-09-06T08:43:35;12.50;;;4.40;;
9698;SDS011;10089;47.876;8.346;2022-09-06T08:46:01;8.73;;;4.40;;
9698;SDS011;10089;47.876;8.346;2022-09-06T08:48:29;13.68;;;4.40;;
9698;SDS011;10089;47.876;8.346;2022-09-06T08:51:03;10.60;;;3.67;;
9698;SDS011;10089;47.876;8.346;2022-09-06T08:53:58;10.50;;;3.60;;
9698;SDS011;10089;47.876;8.346;2022-09-06T08:56:33;10.77;;;3.28;;
9698;SDS011;10089;47.876;8.346;2022-09-06T08:59:11;8.02;;;3.20;;
9698;SDS011;10089;47.876;8.346;2022-09-06T09:04:31;6.80;;;2.47;;
9698;SDS011;10089;47.876;8.346;2022-09-06T09:07:44;10.27;;;3.10;;
9698;SDS011;10089;47.876;8.346;2022-09-06T09:10:06;10.20;;;3.30;;
9698;SDS011;10089;47.876;8.346;2022-09-06T09:12:40;10.65;;;3.10;;
9698;SDS011;10089;47.876;8.346;2022-09-06T09:15:10;9.85;;;3.10;;
9698;SDS011;10089;47.876;8.346;2022-09-06T09:17:39;10.35;;;3.50;;
9698;SDS011;10089;47.876;8.346;2022-09-06T09:20:05;9.20;;;3.28;;
9698;SDS011;10089;47.876;8.346;2022-09-06T09:22:34;6.35;;;3.25;;
9698;SDS011;10089;47.876;8.346;2022-09-06T09:25:00;12.80;;;3.55;;
9698;SDS011;10089;47.876;8.346;2022-09-06T09:27:27;11.05;;;3.65;;
9698;SDS011;10089;47.876;8.346;2022-09-06T09:32:33;11.02;;;3.22;;
9698;SDS011;10089;47.876;8.346;2022-09-06T09:42:55;9.45;;;3.42;;
9698;SDS011;10089;47.876;8.346;2022-09-06T09:45:33;10.27;;;3.20;;
9698;SDS011;10089;47.876;8.346;2022-09-06T09:48:15;9.65;;;3.28;;
9698;SDS011;10089;47.876;8.346;2022-09-06T09:50:51;5.88;;;3.10;;
9698;SDS011;10089;47.876;8.346;2022-09-06T09:53:19;13.23;;;3.30;;
9698;SDS011;10089;47.876;8.346;2022-09-06T09:55:47;6.25;;;2.83;;
9698;SDS011;10089;47.876;8.346;2022-09-06T09:58:26;6.18;;;2.85;;
9698;SDS011;10089;47.876;8.346;2022-09-06T10:01:18;9.82;;;3.20;;
9698;SDS011;10089;47.876;8.346;2022-09-06T10:03:50;6.38;;;2.95;;
9698;SDS011;10089;47.876;8.346;2022-09-06T10:06:23;4.05;;;2.40;;
9698;SDS011;10089;47.876;8.346;2022-09-06T10:08:50;6.28;;;2.40;;
9698;SDS011;10089;47.876;8.346;2022-09-06T10:11:36;5.72;;;2.15;;
9698;SDS011;10089;47.876;8.346;2022-09-06T10:14:23;5.43;;;2.28;;
9698;SDS011;10089;47.876;8.346;2022-09-06T10:16:55;9.80;;;2.83;;
9698;SDS011;10089;47.876;8.346;2022-09-06T10:19:23;4.07;;;2.42;;
9698;SDS011;10089;47.876;8.346;2022-09-06T10:22:09;4.82;;;2.35;;
9698;SDS011;10089;47.876;8.346;2022-09-06T10:24:41;9.38;;;2.58;;
9698;SDS011;10089;47.876;8.346;2022-09-06T10:27:38;4.32;;;2.55;;
9698;SDS011;10089;47.876;8.346;2022-09-06T10:30:28;2.97;;;2.30;;
9698;SDS011;10089;47.876;8.346;2022-09-06T10:33:07;6.20;;;2.17;;
9698;SDS011;10089;47.876;8.346;2022-09-06T10:36:05;6.03;;;3.08;;
9698;SDS011;10089;47.876;8.346;2022-09-06T10:41:38;4.70;;;3.25;;
9698;SDS011;10089;47.876;8.346;2022-09-06T10:47:02;3.38;;;2.17;;
9698;SDS011;10089;47.876;8.346;2022-09-06T10:49:34;4.35;;;2.97;;
9698;SDS011;10089;47.876;8.346;2022-09-06T10:52:03;5.70;;;2.90;;
9698;SDS011;10089;47.876;8.346;2022-09-06T10:54:32;3.60;;;2.92;;
9698;SDS011;10089;47.876;8.346;2022-09-06T10:57:06;10.13;;;3.10;;
9698;SDS011;10089;47.876;8.346;2022-09-06T10:59:47;6.32;;;3.10;;
9698;SDS011;10089;47.876;8.346;2022-09-06T11:07:49;9.38;;;3.75;;
9698;SDS011;10089;47.876;8.346;2022-09-06T11:10:30;7.35;;;3.00;;
9698;SDS011;10089;47.876;8.346;2022-09-06T11:15:28;4.53;;;2.90;;
9698;SDS011;10089;47.876;8.346;2022-09-06T11:18:16;6.38;;;3.00;;
9698;SDS011;10089;47.876;8.346;2022-09-06T11:20:46;9.00;;;3.08;;
9698;SDS011;10089;47.876;8.346;2022-09-06T11:29:05;6.40;;;2.83;;
9698;SDS011;10089;47.876;8.346;2022-09-06T11:34:55;5.55;;;2.50;;
9698;SDS011;10089;47.876;8.346;2022-09-06T11:37:27;14.23;;;3.28;;
9698;SDS011;10089;47.876;8.346;2022-09-06T11:40:05;5.28;;;2.47;;
9698;SDS011;10089;47.876;8.346;2022-09-06T11:45:38;6.97;;;2.70;;
9698;SDS011;10089;47.876;8.346;2022-09-06T11:50:58;7.68;;;3.40;;
9698;SDS011;10089;47.876;8.346;2022-09-06T11:53:27;7.90;;;3.40;;
9698;SDS011;10089;47.876;8.346;2022-09-06T11:58:29;10.65;;;3.45;;
9698;SDS011;10089;47.876;8.346;2022-09-06T12:06:26;11.20;;;3.90;;
9698;SDS011;10089;47.876;8.346;2022-09-06T12:11:53;6.15;;;2.97;;
9698;SDS011;10089;47.876;8.346;2022-09-06T12:19:45;4.72;;;2.75;;
9698;SDS011;10089;47.876;8.346;2022-09-06T12:27:24;11.98;;;2.75;;
9698;SDS011;10089;47.876;8.346;2022-09-06T12:30:00;4.95;;;2.38;;
9698;SDS011;10089;47.876;8.346;2022-09-06T12:35:04;10.35;;;2.80;;
9698;SDS011;10089;47.876;8.346;2022-09-06T12:37:48;5.25;;;2.42;;
9698;SDS011;10089;47.876;8.346;2022-09-06T12:40:25;5.07;;;2.63;;
9698;SDS011;10089;47.876;8.346;2022-09-06T12:42:54;7.65;;;2.80;;
9698;SDS011;10089;47.876;8.346;2022-09-06T12:45:20;9.60;;;3.50;;
9698;SDS011;10089;47.876;8.346;2022-09-06T12:47:47;8.98;;;3.40;;
9698;SDS011;10089;47.876;8.346;2022-09-06T12:50:17;6.78;;;3.22;;
9698;SDS011;10089;47.876;8.346;2022-09-06T12:52:49;10.00;;;3.53;;
9698;SDS011;10089;47.876;8.346;2022-09-06T12:55:22;8.00;;;3.72;;
9698;SDS011;10089;47.876;8.346;2022-09-06T12:57:54;7.95;;;3.53;;
9698;SDS011;10089;47.876;8.346;2022-09-06T13:00:23;10.05;;;3.13;;
9698;SDS011;10089;47.876;8.346;2022-09-06T13:05:52;12.82;;;3.88;;
9698;SDS011;10089;47.876;8.346;2022-09-06T13:08:22;6.30;;;3.17;;
9698;SDS011;10089;47.876;8.346;2022-09-06T13:11:00;8.85;;;3.05;;
9698;SDS011;10089;47.876;8.346;2022-09-06T13:13:32;6.05;;;3.05;;
9698;SDS011;10089;47.876;8.346;2022-09-06T13:15:58;8.95;;;3.47;;
9698;SDS011;10089;47.876;8.346;2022-09-06T13:18:31;6.00;;;2.70;;
9698;SDS011;10089;47.876;8.346;2022-09-06T13:23:28;5.40;;;2.85;;
9698;SDS011;10089;47.876;8.346;2022-09-06T13:25:55;8.68;;;2.83;;
9698;SDS011;10089;47.876;8.346;2022-09-06T13:28:29;10.93;;;2.90;;
9698;SDS011;10089;47.876;8.346;2022-09-06T13:33:41;5.40;;;2.22;;
9698;SDS011;10089;47.876;8.346;2022-09-06T13:36:22;6.15;;;2.42;;
9698;SDS011;10089;47.876;8.346;2022-09-06T13:38:50;5.18;;;2.47;;
9698;SDS011;10089;47.876;8.346;2022-09-06T13:43:59;9.57;;;2.50;;
9698;SDS011;10089;47.876;8.346;2022-09-06T13:46:24;5.60;;;2.50;;
9698;SDS011;10089;47.876;8.346;2022-09-06T13:48:53;4.90;;;2.20;;
9698;SDS011;10089;47.876;8.346;2022-09-06T13:51:20;4.15;;;2.10;;
9698;SDS011;10089;47.876;8.346;2022-09-06T13:53:46;7.70;;;1.88;;
9698;SDS011;10089;47.876;8.346;2022-09-06T13:56:12;3.40;;;1.70;;
9698;SDS011;10089;47.876;8.346;2022-09-06T13:58:39;5.80;;;2.20;;
9698;SDS011;10089;47.876;8.346;2022-09-06T14:01:05;3.47;;;1.88;;
9698;SDS011;10089;47.876;8.346;2022-09-06T14:03:34;5.25;;;1.77;;
9698;SDS011;10089;47.876;8.346;2022-09-06T14:06:01;2.75;;;1.55;;
9698;SDS011;10089;47.876;8.346;2022-09-06T14:08:27;4.88;;;1.73;;
9698;SDS011;10089;47.876;8.346;2022-09-06T14:10:53;1.52;;;1.40;;
9698;SDS011;10089;47.876;8.346;2022-09-06T14:13:19;4.85;;;2.05;;
9698;SDS011;10089;47.876;8.346;2022-09-06T14:15:47;8.45;;;2.05;;
9698;SDS011;10089;47.876;8.346;2022-09-06T14:18:14;3.38;;;1.98;;
9698;SDS011;10089;47.876;8.346;2022-09-06T14:20:40;4.63;;;2.28;;
9698;SDS011;10089;47.876;8.346;2022-09-06T14:23:07;6.35;;;1.92;;
9698;SDS011;10089;47.876;8.346;2022-09-06T14:25:33;6.80;;;1.95;;
9698;SDS011;10089;47.876;8.346;2022-09-06T14:28:01;7.45;;;2.10;;
9698;SDS011;10089;47.876;8.346;2022-09-06T14:30:29;3.97;;;1.77;;
9698;SDS011;10089;47.876;8.346;2022-09-06T14:32:55;4.13;;;1.80;;
9698;SDS011;10089;47.876;8.346;2022-09-06T14:35:21;3.70;;;2.33;;
9698;SDS011;10089;47.876;8.346;2022-09-06T14:37:46;7.88;;;2.20;;
9698;SDS011;10089;47.876;8.346;2022-09-06T14:40:13;4.45;;;1.52;;
9698;SDS011;10089;47.876;8.346;2022-09-06T14:42:39;1.40;;;1.30;;
9698;SDS011;10089;47.876;8.346;2022-09-06T14:45:05;4.03;;;1.60;;
9698;SDS011;10089;47.876;8.346;2022-09-06T14:47:32;3.45;;;1.77;;
9698;SDS011;10089;47.876;8.346;2022-09-06T14:49:58;5.32;;;1.92;;
9698;SDS011;10089;47.876;8.346;2022-09-06T14:52:24;1.73;;;1.40;;
9698;SDS011;10089;47.876;8.346;2022-09-06T14:54:50;4.10;;;1.83;;
9698;SDS011;10089;47.876;8.346;2022-09-06T14:57:16;3.78;;;1.77;;
9698;SDS011;10089;47.876;8.346;2022-09-06T14:59:41;4.57;;;2.22;;
9698;SDS011;10089;47.876;8.346;2022-09-06T15:02:07;1.95;;;1.40;;
9698;SDS011;10089;47.876;8.346;2022-09-06T15:04:34;6.03;;;1.67;;
9698;SDS011;10089;47.876;8.346;2022-09-06T15:07:00;6.38;;;1.80;;
9698;SDS011;10089;47.876;8.346;2022-09-06T15:09:27;2.45;;;1.60;;
9698;SDS011;10089;47.876;8.346;2022-09-06T15:11:53;5.18;;;1.65;;
9698;SDS011;10089;47.876;8.346;2022-09-06T15:14:23;8.57;;;2.03;;
9698;SDS011;10089;47.876;8.346;2022-09-06T15:16:50;3.00;;;1.48;;
9698;SDS011;10089;47.876;8.346;2022-09-06T15:19:20;4.28;;;1.88;;
9698;SDS011;10089;47.876;8.346;2022-09-06T15:21:46;5.43;;;1.80;;
9698;SDS011;10089;47.876;8.346;2022-09-06T15:24:12;6.72;;;1.75;;
9698;SDS011;10089;47.876;8.346;2022-09-06T15:26:40;6.20;;;1.98;;
9698;SDS011;10089;47.876;8.346;2022-09-06T15:29:07;3.70;;;1.70;;
9698;SDS011;10089;47.876;8.346;2022-09-06T15:31:37;4.07;;;1.52;;
9698;SDS011;10089;47.876;8.346;2022-09-06T15:34:04;3.97;;;1.73;;
9698;SDS011;10089;47.876;8.346;2022-09-06T15:36:31;1.83;;;1.50;;
9698;SDS011;10089;47.876;8.346;2022-09-06T15:38:58;3.58;;;1.65;;
9698;SDS011;10089;47.876;8.346;2022-09-06T15:41:25;3.20;;;1.42;;
9698;SDS011;10089;47.876;8.346;2022-09-06T15:43:54;4.35;;;1.25;;
9698;SDS011;10089;47.876;8.346;2022-09-06T15:49:00;4.68;;;2.10;;
9698;SDS011;10089;47.876;8.346;2022-09-06T15:51:29;3.78;;;2.00;;
9698;SDS011;10089;47.876;8.346;2022-09-06T15:53:59;7.68;;;2.22;;
9698;SDS011;10089;47.876;8.346;2022-09-06T15:56:25;2.40;;;1.80;;
9698;SDS011;10089;47.876;8.346;2022-09-06T15:58:51;3.38;;;1.75;;
9698;SDS011;10089;47.876;8.346;2022-09-06T16:01:18;4.85;;;1.92;;
9698;SDS011;10089;47.876;8.346;2022-09-06T16:03:49;2.90;;;1.60;;
9698;SDS011;10089;47.876;8.346;2022-09-06T16:06:18;3.15;;;1.70;;
9698;SDS011;10089;47.876;8.346;2022-09-06T16:08:46;4.50;;;1.75;;
9698;SDS011;10089;47.876;8.346;2022-09-06T16:11:13;3.08;;;1.55;;
9698;SDS011;10089;47.876;8.346;2022-09-06T16:13:41;5.32;;;1.63;;
9698;SDS011;10089;47.876;8.346;2022-09-06T16:16:08;3.28;;;2.00;;
9698;SDS011;10089;47.876;8.346;2022-09-06T16:18:36;8.50;;;2.80;;
9698;SDS011;10089;47.876;8.346;2022-09-06T16:21:08;5.60;;;2.10;;
9698;SDS011;10089;47.876;8.346;2022-09-06T16:23:36;5.90;;;2.28;;
9698;SDS011;10089;47.876;8.346;2022-09-06T16:26:03;6.18;;;2.20;;
9698;SDS011;10089;47.876;8.346;2022-09-06T16:28:30;5.00;;;2.20;;
9698;SDS011;10089;47.876;8.346;2022-09-06T16:31:01;4.10;;;2.53;;
9698;SDS011;10089;47.876;8.346;2022-09-06T16:33:28;4.88;;;2.78;;
9698;SDS011;10089;47.876;8.346;2022-09-06T16:36:03;5.38;;;2.55;;
9698;SDS011;10089;47.876;8.346;2022-09-06T16:38:31;4.32;;;2.75;;
9698;SDS011;10089;47.876;8.346;2022-09-06T16:40:58;7.70;;;3.20;;
9698;SDS011;10089;47.876;8.346;2022-09-06T16:43:26;5.97;;;3.60;;
9698;SDS011;10089;47.876;8.346;2022-09-06T16:45:59;7.05;;;3.33;;
9698;SDS011;10089;47.876;8.346;2022-09-06T16:48:27;4.03;;;2.70;;
9698;SDS011;10089;47.876;8.346;2022-09-06T16:50:53;3.05;;;2.50;;
9698;SDS011;10089;47.876;8.346;2022-09-06T16:53:20;5.97;;;2.95;;
9698;SDS011;10089;47.876;8.346;2022-09-06T16:55:46;4.47;;;3.17;;
9698;SDS011;10089;47.876;8.346;2022-09-06T16:58:12;6.97;;;2.78;;
9698;SDS011;10089;47.876;8.346;2022-09-06T17:00:42;6.35;;;2.67;;
9698;SDS011;10089;47.876;8.346;2022-09-06T17:03:09;4.07;;;2.10;;
9698;SDS011;10089;47.876;8.346;2022-09-06T17:05:38;4.13;;;1.90;;
9698;SDS011;10089;47.876;8.346;2022-09-06T17:08:04;4.40;;;2.40;;
9698;SDS011;10089;47.876;8.346;2022-09-06T17:10:30;4.32;;;1.83;;
9698;SDS011;10089;47.876;8.346;2022-09-06T17:12:56;4.22;;;2.58;;
9698;SDS011;10089;47.876;8.346;2022-09-06T17:15:22;3.45;;;1.80;;
9698;SDS011;10089;47.876;8.346;2022-09-06T17:17:48;3.50;;;2.05;;
9698;SDS011;10089;47.876;8.346;2022-09-06T17:20:14;2.67;;;1.60;;
9698;SDS011;10089;47.876;8.346;2022-09-06T17:22:42;4.63;;;2.00;;
9698;SDS011;10089;47.876;8.346;2022-09-06T17:25:08;4.55;;;1.45;;
9698;SDS011;10089;47.876;8.346;2022-09-06T17:27:36;4.03;;;1.50;;
9698;SDS011;10089;47.876;8.346;2022-09-06T17:30:02;3.28;;;1.73;;
9698;SDS011;10089;47.876;8.346;2022-09-06T17:32:29;2.72;;;1.80;;
9698;SDS011;10089;47.876;8.346;2022-09-06T17:34:55;8.55;;;4.85;;
9698;SDS011;10089;47.876;8.346;2022-09-06T17:37:21;6.38;;;3.40;;
9698;SDS011;10089;47.876;8.346;2022-09-06T17:39:47;6.30;;;3.10;;
9698;SDS011;10089;47.876;8.346;2022-09-06T17:42:13;4.00;;;1.90;;
9698;SDS011;10089;47.876;8.346;2022-09-06T17:44:39;5.18;;;2.00;;
9698;SDS011;10089;47.876;8.346;2022-09-06T17:47:05;3.25;;;1.80;;
9698;SDS011;10089;47.876;8.346;2022-09-06T17:49:32;2.67;;;1.67;;
9698;SDS011;10089;47.876;8.346;2022-09-06T17:51:58;5.50;;;1.83;;